Flight Track Log - Related Links

Times and Time Zones

All times are in EDT time to prevent confusion due to time zone crossing. See the JBU673 flight status page for this flight to view local times or setup timezone preferences in your user account.


Time Position Orientation Groundspeed Altitude Reporting Facility
EDT Latitude Longitude Course Direction KTS MPH feet Rate Location/Type
Fri 11:22:53 AM 40.6500 -73.7333 333° Northwest 162 186 1,900  Level New York TRACON
Fri 11:23:53 AM 40.6667 -73.6667 72° East 218 251 3,200 1,500 Climbing New York TRACON
Fri 11:24:53 AM 40.6833 -73.5667 78° East 289 333 4,900 1,950 Climbing New York TRACON
Fri 11:25:00 AM 41.0091 -74.0568 331° Northwest  Level FlightAware Approximate
Fri 11:25:53 AM 40.7500 -73.4667 49° Northeast 329 379 7,100  Level New York TRACON
Fri 11:26:00 AM 41.1088 -74.1316 331° Northwest  Level FlightAware Approximate
Fri 11:26:58 AM 40.8167 -73.4167 30° Northeast 341 392 9,500  Level New York TRACON
Fri 11:27:00 AM 41.2072 -74.2072 323° Northwest  Level FlightAware Approximate
Fri 11:27:53 AM 40.8833 -73.5000 317° Northwest 318 366 10,900  Level New York TRACON
Fri 11:28:00 AM 41.3079 -74.2775 333° Northwest  Level FlightAware Approximate
Fri 11:28:53 AM 40.9500 -73.6000 311° West 361 415 12,400  Level New York TRACON
Fri 11:29:53 AM 41.0000 -73.7000 304° West 367 422 13,900 1,650 Climbing New York TRACON
Fri 11:30:53 AM 41.0833 -73.8167 313° West 476 548 15,700 1,450 Climbing New York TRACON
Fri 11:31:53 AM 41.1500 -73.9333 307° West 403 464 16,800 677 Climbing New York TRACON
Fri 11:33:06 AM 41.2303 -74.0650 309° West 438 504 17,200 1,191 Climbing New York Center
Fri 11:34:04 AM 41.3081 -74.1850 311° West 438 504 19,400 1,932 Climbing New York Center
Fri 11:35:04 AM 41.3775 -74.3017 308° West 432 497 21,000 1,240 Climbing New York Center
Fri 11:36:05 AM 41.4442 -74.4325 304° West 427 491 21,900 1,041 Climbing New York Center
Fri 11:37:05 AM 41.5042 -74.5797 299° West 422 486 23,100 1,041 Climbing New York Center
Fri 11:38:06 AM 41.5642 -74.7192 300° West 422 486 24,000 908 Climbing New York Center
Fri 11:39:04 AM 41.6239 -74.8586 300° West 428 493 24,900 908 Climbing New York Center
Fri 11:40:05 AM 41.6856 -75.0011 300° West 433 498 25,800 836 Climbing New York Center
Fri 11:41:06 AM 41.7450 -75.1467 299° West 439 505 26,600 712 Climbing New York Center
Fri 11:42:03 AM 41.8061 -75.2928 299° West 449 517 27,200 712 Climbing New York Center
Fri 11:43:04 AM 41.8689 -75.4417 300° West 449 517 28,000 393 Climbing New York Center
Fri 11:44:05 AM 41.9319 -75.5883 300° West 449 517 28,000 295 Level New York Center
Fri 11:45:06 AM 41.9922 -75.7378 299° West 449 517 28,600 454 Climbing New York Center
Fri 11:46:04 AM 42.0525 -75.8875 299° West 449 517 28,900 654 Climbing New York Center
Fri 11:47:42 AM 42.1333 -76.1000 297° West 450 518 30,300 672 Climbing Toronto Center
Fri 11:48:09 AM 42.1719 -76.1839 302° West 457 526 30,300 414 Level Cleveland Center
Fri 11:49:09 AM 42.2217 -76.3406 293° West 449 517 30,900 600 Climbing Cleveland Center
Fri 11:50:09 AM 42.2753 -76.5025 294° West 443 510 31,500 450 Climbing Cleveland Center
Fri 11:51:09 AM 42.3244 -76.6567 293° West 443 510 31,800 250 Climbing Cleveland Center
Fri 11:52:09 AM 42.3714 -76.8139 292° West 449 517 32,000 100 Climbing Cleveland Center
Fri 11:53:09 AM 42.4203 -76.9658 294° West 444 511 32,000  Level Cleveland Center
Fri 11:54:09 AM 42.4664 -77.1125 293° West 444 511 32,000  Level Cleveland Center
Fri 11:55:09 AM 42.5147 -77.2647 293° West 444 511 32,000 -50 Level Cleveland Center
Fri 11:56:09 AM 42.5583 -77.4119 292° West 439 505 31,900 -50 Descending Cleveland Center
Fri 11:57:09 AM 42.6036 -77.5478 294° West 433 498 31,900  Level Cleveland Center
Fri 11:58:09 AM 42.6472 -77.6953 292° West 428 493 31,900 50 Level Cleveland Center
Fri 11:59:09 AM 42.6903 -77.8431 292° West 428 493 32,000 50 Climbing Cleveland Center
Fri 12:00:09 PM 42.7356 -77.9911 293° West 428 493 32,000  Level Cleveland Center
Fri 12:01:09 PM 42.7806 -78.1419 292° West 428 493 32,000  Level Cleveland Center
Fri 12:02:09 PM 42.8231 -78.2903 291° West 423 487 32,000  Level Cleveland Center
Fri 12:03:09 PM 42.8697 -78.4389 293° West 428 493 32,000  Level Cleveland Center
Fri 12:04:09 PM 42.9119 -78.5875 291° West 428 493 32,000  Level Cleveland Center
Fri 12:05:09 PM 42.9375 -78.7456 283° West 423 487 32,000  Level Cleveland Center
Fri 12:06:09 PM 42.9439 -78.8986 273° West 418 481 32,000  Level Cleveland Center
Fri 12:06:42 PM 42.9333 -78.9667 258° West 410 472 32,000  Level Toronto Center
Fri 12:07:42 PM 42.9500 -79.1333 278° West 410 472 32,000  Level Toronto Center
Fri 12:08:42 PM 42.9500 -79.2833 270° West 420 483 32,000  Level Toronto Center
Fri 12:09:42 PM 42.9667 -79.4500 278° West 420 483 32,000  Level Toronto Center
Fri 12:10:42 PM 42.9667 -79.6167 270° West 420 483 32,000  Level Toronto Center
Fri 12:11:42 PM 42.9833 -79.7667 279° West 420 483 32,000  Level Toronto Center
Fri 12:12:42 PM 42.9833 -79.9333 270° West 420 483 32,000  Level Toronto Center
Fri 12:13:42 PM 42.9833 -80.0833 270° West 410 472 32,000 -50 Level Toronto Center
Fri 12:14:42 PM 43.0000 -80.2500 278° West 410 472 31,900  Descending Toronto Center
Fri 12:15:42 PM 43.0000 -80.4000 270° West 410 472 32,000 50 Climbing Toronto Center
Fri 12:16:42 PM 43.0167 -80.5667 278° West 420 483 32,000  Level Toronto Center
Fri 12:17:42 PM 43.0167 -80.7000 270° West 420 483 32,000 100 Level Toronto Center
Fri 12:18:42 PM 43.0167 -80.8833 270° West 420 483 32,200 450 Climbing Toronto Center
Fri 12:19:42 PM 43.0167 -81.0500 270° West 420 483 32,900 700 Climbing Toronto Center
Fri 12:20:42 PM 43.0333 -81.2000 279° West 420 483 33,600 550 Climbing Toronto Center
Fri 12:21:42 PM 43.0500 -81.3500 279° West 420 483 34,000 200 Climbing Toronto Center
Fri 12:22:42 PM 43.0833 -81.5000 287° West 420 483 34,000  Level Toronto Center
Fri 12:23:42 PM 43.1000 -81.6667 278° West 420 483 34,000  Level Toronto Center
Fri 12:24:42 PM 43.1333 -81.8333 285° West 430 495 34,000  Level Toronto Center
Fri 12:25:42 PM 43.1333 -81.9833 270° West 430 495 34,000  Level Toronto Center
Fri 12:26:42 PM 43.1667 -82.1500 285° West 420 483 34,000  Level Toronto Center
Fri 12:27:42 PM 43.1833 -82.3000 279° West 420 483 34,000  Level Toronto Center
Fri 12:28:42 PM 43.2167 -82.4667 285° West 430 495 34,000  Level Toronto Center
Fri 12:29:42 PM 43.2500 -82.6333 285° West 430 495 34,000  Level Toronto Center
Fri 12:29:57 PM 43.2458 -82.6608 258° West 431 496 34,000  Level Cleveland Center
Fri 12:30:57 PM 43.2556 -82.8208 275° West 431 496 34,000  Level Cleveland Center
Fri 12:31:57 PM 43.2564 -82.9806 270° West 426 490 34,000  Level Cleveland Center
Fri 12:32:57 PM 43.2550 -83.1400 269° West 421 484 34,000  Level Cleveland Center
Fri 12:33:57 PM 43.2514 -83.2994 268° West 421 484 34,000  Level Cleveland Center
Fri 12:34:57 PM 43.2536 -83.4650 271° West 421 484 34,000  Level Cleveland Center
Fri 12:35:57 PM 43.2517 -83.6244 269° West 421 484 34,000  Level Cleveland Center
Fri 12:36:57 PM 43.2494 -83.7897 269° West 427 491 34,000  Level Cleveland Center
Fri 12:37:57 PM 43.2489 -83.9553 270° West 427 491 34,000  Level Cleveland Center
Fri 12:38:57 PM 43.2439 -84.1144 268° West 427 491 34,000  Level Cleveland Center
Fri 12:39:57 PM 43.2431 -84.2769 270° West 422 486 34,000  Level Cleveland Center
Fri 12:41:32 PM 43.2392 -84.5358 269° West 425 489 34,000  Level Chicago Center
Fri 12:42:34 PM 43.2367 -84.6983 269° West 428 493 34,000  Level Chicago Center
Fri 12:43:36 PM 43.2339 -84.8614 269° West 430 495 34,000  Level Chicago Center
Fri 12:44:38 PM 43.2308 -85.0219 269° West 425 489 34,000  Level Chicago Center
Fri 12:45:40 PM 43.2269 -85.2172 269° West 428 493 34,000 48 Level Chicago Center
Fri 12:46:42 PM 43.2236 -85.3781 268° West 426 490 34,100  Climbing Chicago Center
Fri 12:47:44 PM 43.2200 -85.5361 268° West 420 483 34,000 -48 Descending Chicago Center
Fri 12:48:46 PM 43.2158 -85.6922 268° West 415 478 34,000  Level Chicago Center
Fri 12:49:48 PM 43.2111 -85.8464 268° West 412 474 34,000  Level Chicago Center
Fri 12:50:50 PM 43.2067 -86.0297 268° West 411 473 34,000  Level Chicago Center
Fri 12:51:52 PM 43.2025 -86.1833 268° West 412 474 34,000  Level Chicago Center
Fri 12:52:54 PM 43.1969 -86.3356 267° West 407 468 34,000  Level Chicago Center
Fri 12:53:56 PM 43.1925 -86.4883 268° West 405 466 34,000  Level Chicago Center
Fri 12:54:58 PM 43.1872 -86.6436 267° West 407 468 34,000  Level Chicago Center
Fri 12:56:00 PM 43.1800 -86.8294 267° West 410 472 34,000  Level Chicago Center
Fri 12:57:02 PM 43.1750 -86.9836 268° West 407 468 34,000  Level Chicago Center
Fri 12:58:04 PM 43.1675 -87.1383 266° West 410 472 34,000  Level Chicago Center
Fri 12:59:06 PM 43.1614 -87.2919 267° West 406 467 34,000  Level Chicago Center
Fri 01:00:07 PM 43.1547 -87.4547 267° West 405 466 34,000  Level Chicago Center
Fri 01:01:09 PM 43.1494 -87.6094 267° West 405 466 34,000  Level Chicago Center
Fri 01:02:11 PM 43.1422 -87.7625 266° West 404 465 34,000  Level Chicago Center
Fri 01:03:13 PM 43.1333 -87.9406 266° West 403 464 34,000  Level Chicago Center
Fri 01:04:15 PM 43.1258 -88.0931 266° West 402 463 34,000  Level Chicago Center
Fri 01:05:17 PM 43.1183 -88.2486 266° West 407 468 34,000  Level Chicago Center
Fri 01:06:19 PM 43.1183 -88.4031 270° West 404 465 34,000  Level Chicago Center
Fri 01:07:20 PM 43.1211 -88.5594 271° West 407 468 34,000  Level Chicago Center
Fri 01:08:22 PM 43.1228 -88.7156 271° West 406 467 34,000  Level Chicago Center
Fri 01:09:24 PM 43.1253 -88.8722 271° West 408 470 34,000  Level Chicago Center
Fri 01:10:26 PM 43.1275 -89.0514 271° West 405 466 34,000  Level Chicago Center
Fri 01:11:28 PM 43.1289 -89.2069 271° West 406 467 34,000  Level Chicago Center
Fri 01:12:30 PM 43.1294 -89.3644 270° West 412 474 34,000  Level Chicago Center
Fri 01:13:32 PM 43.1319 -89.5242 271° West 418 481 34,000  Level Chicago Center
Fri 01:14:34 PM 43.1314 -89.6831 270° West 420 483 34,000  Level Chicago Center
Fri 01:15:36 PM 43.1331 -89.8411 271° West 417 480 34,000  Level Chicago Center
Fri 01:16:37 PM 43.1250 -90.0214 267° West 419 482 34,000  Level Chicago Center
Fri 01:17:39 PM 43.1033 -90.1736 259° West 412 474 34,000  Level Chicago Center
Fri 01:18:41 PM 43.0842 -90.3281 260° West 416 479 34,000  Level Chicago Center
Fri 01:19:43 PM 43.0636 -90.4825 260° West 417 480 34,000  Level Chicago Center
Fri 01:20:58 PM 43.0361 -90.6642 258° West 413 475 34,000  Level Chicago Center
Fri 01:21:59 PM 43.0114 -90.8483 260° West 414 476 34,000  Level Chicago Center
Fri 01:22:25 PM 43.0028 -90.9097 259° West 414 476 34,000  Level Minneapolis Center
Fri 01:23:27 PM 42.9817 -91.0636 259° West 416 479 34,000  Level Minneapolis Center
Fri 01:24:29 PM 42.9600 -91.2167 259° West 416 479 34,000  Level Minneapolis Center
Fri 01:25:30 PM 42.9383 -91.3700 259° West 417 480 34,000  Level Minneapolis Center
Fri 01:26:32 PM 42.9122 -91.5517 259° West 415 478 34,000  Level Minneapolis Center
Fri 01:27:34 PM 42.8897 -91.6997 258° West 413 475 34,000  Level Minneapolis Center
Fri 01:28:36 PM 42.8675 -91.8475 258° West 411 473 34,000  Level Minneapolis Center
Fri 01:29:38 PM 42.8450 -91.9975 258° West 410 472 34,000  Level Minneapolis Center
Fri 01:30:40 PM 42.8183 -92.1797 259° West 413 475 34,000  Level Minneapolis Center
Fri 01:31:41 PM 42.7947 -92.3325 258° West 415 478 34,000  Level Minneapolis Center
Fri 01:32:43 PM 42.7717 -92.4839 258° West 413 475 34,000  Level Minneapolis Center
Fri 01:33:45 PM 42.7478 -92.6317 258° West 405 466 34,000  Level Minneapolis Center
Fri 01:34:47 PM 42.7250 -92.7792 258° West 404 465 34,000  Level Minneapolis Center
Fri 01:35:49 PM 42.7017 -92.9278 258° West 404 465 34,000 48 Level Minneapolis Center
Fri 01:36:51 PM 42.6733 -93.1067 258° West 406 467 34,100  Climbing Minneapolis Center
Fri 01:37:53 PM 42.6494 -93.2533 258° West 403 464 34,000 -48 Descending Minneapolis Center
Fri 01:38:55 PM 42.6264 -93.3986 258° West 399 459 34,000  Level Minneapolis Center
Fri 01:39:56 PM 42.6019 -93.5431 257° West 396 456 34,000  Level Minneapolis Center
Fri 01:40:58 PM 42.5783 -93.6881 258° West 396 456 34,000  Level Minneapolis Center
Fri 01:42:00 PM 42.5492 -93.8633 257° West 399 459 34,000  Level Minneapolis Center
Fri 01:43:02 PM 42.5242 -94.0122 257° West 405 466 34,000  Level Minneapolis Center
Fri 01:44:04 PM 42.4986 -94.1617 257° West 409 471 34,000  Level Minneapolis Center
Fri 01:45:06 PM 42.4744 -94.3100 258° West 408 470 34,000 49 Level Minneapolis Center
Fri 01:46:07 PM 42.4494 -94.4522 257° West 404 465 34,100  Climbing Minneapolis Center
Fri 01:47:09 PM 42.4181 -94.6261 256° West 399 459 34,000 -97 Descending Minneapolis Center
Fri 01:48:11 PM 42.3931 -94.7689 257° West 392 451 33,900  Descending Minneapolis Center
Fri 01:49:13 PM 42.3672 -94.9156 257° West 398 458 34,000 48 Climbing Minneapolis Center
Fri 01:50:15 PM 42.3411 -95.0619 256° West 400 460 34,000  Level Minneapolis Center
Fri 01:51:16 PM 42.3150 -95.2083 256° West 400 460 34,000  Level Minneapolis Center
Fri 01:52:18 PM 42.2872 -95.3583 256° West 407 468 34,000 48 Level Minneapolis Center
Fri 01:53:20 PM 42.2544 -95.5381 256° West 411 473 34,100  Climbing Minneapolis Center
Fri 01:54:22 PM 42.2261 -95.6892 256° West 414 476 34,000 -48 Descending Minneapolis Center
Fri 01:55:24 PM 42.1989 -95.8369 256° West 411 473 34,000  Level Minneapolis Center
Fri 01:56:25 PM 42.1708 -95.9839 256° West 409 471 34,000  Level Minneapolis Center
Fri 01:57:39 PM 42.1425 -96.1306 255° West 407 468 34,000  Level Minneapolis Center
Fri 01:58:41 PM 42.1086 -96.3069 256° West 408 470 34,000  Level Minneapolis Center
Fri 01:59:43 PM 42.0750 -96.4817 256° West 404 465 34,000  Level Minneapolis Center
Fri 02:00:45 PM 42.0472 -96.6275 256° West 404 465 34,000  Level Minneapolis Center
Fri 02:01:47 PM 42.0181 -96.7722 255° West 403 464 34,000  Level Minneapolis Center
Fri 02:02:49 PM 41.9889 -96.9183 255° West 405 466 34,000  Level Minneapolis Center
Fri 02:03:50 PM 41.9608 -97.0656 256° West 408 470 34,000  Level Minneapolis Center
Fri 02:04:52 PM 41.9306 -97.2133 255° West 411 473 34,000  Level Minneapolis Center
Fri 02:05:54 PM 41.8956 -97.3881 255° West 407 468 34,000  Level Minneapolis Center
Fri 02:06:56 PM 41.8656 -97.5333 255° West 406 467 34,000  Level Minneapolis Center
Fri 02:07:58 PM 41.8369 -97.6758 255° West 399 459 34,000  Level Minneapolis Center
Fri 02:09:00 PM 41.8069 -97.8169 254° West 397 457 34,000  Level Minneapolis Center
Fri 02:10:01 PM 41.7792 -97.9592 255° West 395 455 34,000  Level Minneapolis Center
Fri 02:11:03 PM 41.7481 -98.0992 253° West 394 453 34,000  Level Minneapolis Center
Fri 02:12:05 PM 41.7153 -98.2617 255° West 393 452 34,000  Level Minneapolis Center
Fri 02:13:07 PM 41.6836 -98.4025 253° West 395 455 34,000  Level Minneapolis Center
Fri 02:14:09 PM 41.6542 -98.5431 254° West 394 453 34,000  Level Minneapolis Center
Fri 02:15:11 PM 41.6250 -98.6828 254° West 393 452 34,000  Level Minneapolis Center
Fri 02:16:13 PM 41.5931 -98.8236 253° West 397 457 34,000  Level Minneapolis Center
Fri 02:17:15 PM 41.5586 -98.9864 254° West 387 445 34,000 98 Level Minneapolis Center
Fri 02:18:16 PM 41.5319 -99.1056 253° West 386 444 34,200 178 Climbing Minneapolis Center
Fri 02:18:56 PM 41.5086 -99.2089 253° West 394 453 34,300 294 Climbing Denver Center
Fri 02:19:58 PM 41.4772 -99.3522 254° West 402 463 34,700 435 Climbing Denver Center
Fri 02:21:00 PM 41.4444 -99.4992 253° West 411 473 35,200 629 Climbing Denver Center
Fri 02:22:02 PM 41.4050 -99.6761 254° West 416 479 36,000 390 Climbing Denver Center
Fri 02:23:03 PM 41.3758 -99.8042 253° West 410 472 36,000  Level Denver Center
Fri 02:24:05 PM 41.3383 -99.9664 253° West 412 474 36,000  Level Denver Center
Fri 02:25:07 PM 41.3064 -100.1064 253° West 414 476 36,000  Level Denver Center
Fri 02:26:09 PM 41.2683 -100.2697 253° West 415 478 36,000  Level Denver Center
Fri 02:27:11 PM 41.2367 -100.4092 253° West 415 478 36,000  Level Denver Center
Fri 02:28:13 PM 41.1986 -100.5731 253° West 417 480 36,000 49 Level Denver Center
Fri 02:29:14 PM 41.1650 -100.7119 252° West 418 481 36,100  Climbing Denver Center
Fri 02:30:16 PM 41.1278 -100.8728 253° West 412 474 36,000 -48 Descending Denver Center
Fri 02:31:18 PM 41.0947 -101.0078 252° West 408 470 36,000  Level Denver Center
Fri 02:32:20 PM 41.0578 -101.1642 253° West 402 463 36,000  Level Denver Center
Fri 02:33:34 PM 41.0247 -101.3000 252° West 406 467 36,000  Level Denver Center
Fri 02:34:36 PM 40.9808 -101.4828 252° West 410 472 36,000  Level Denver Center
Fri 02:35:38 PM 40.9483 -101.6194 253° West 410 472 36,000  Level Denver Center
Fri 02:36:39 PM 40.9064 -101.7794 251° West 413 475 36,000  Level Denver Center
Fri 02:37:53 PM 40.8722 -101.9158 252° West 410 472 36,000  Level Denver Center
Fri 02:38:55 PM 40.8325 -102.0739 252° West 407 468 36,000  Level Denver Center
Fri 02:39:57 PM 40.7944 -102.2333 253° West 409 471 36,000  Level Denver Center
Fri 02:40:58 PM 40.7528 -102.3931 251° West 414 476 36,000  Level Denver Center
Fri 02:42:00 PM 40.7186 -102.5317 252° West 416 479 36,000 48 Level Denver Center
Fri 02:43:02 PM 40.6786 -102.6833 251° West 418 481 36,100 49 Climbing Denver Center
Fri 02:44:03 PM 40.6408 -102.8294 251° West 418 481 36,100  Level Denver Center
Fri 02:45:05 PM 40.6042 -102.9742 252° West 413 475 36,100 -48 Level Denver Center
Fri 02:46:07 PM 40.5614 -103.1350 251° West 399 459 36,000 -48 Descending Denver Center
Fri 02:47:09 PM 40.5258 -103.2731 251° West 396 456 36,000  Level Denver Center
Fri 02:48:10 PM 40.4889 -103.4103 251° West 396 456 36,000  Level Denver Center
Fri 02:49:12 PM 40.4514 -103.5514 251° West 405 466 36,000 48 Level Denver Center
Fri 02:50:14 PM 40.4133 -103.6928 251° West 409 471 36,100 49 Climbing Denver Center
Fri 02:51:15 PM 40.3761 -103.8356 251° West 409 471 36,100 -49 Level Denver Center
Fri 02:52:17 PM 40.3378 -103.9775 251° West 406 467 36,000 -49 Descending Denver Center
Fri 02:53:18 PM 40.3064 -104.0919 250° West 399 459 36,000  Level Denver Center
Fri 02:54:21 PM 40.2625 -104.2519 250° West 397 457 36,000  Level Denver Center
Fri 02:55:22 PM 40.2192 -104.4106 250° West 394 453 36,000  Level Denver Center
Fri 02:56:24 PM 40.1814 -104.5469 250° West 397 457 36,000  Level Denver Center
Fri 02:57:25 PM 40.1433 -104.6831 250° West 398 458 36,000 49 Level Denver Center
Fri 02:58:27 PM 40.1050 -104.8206 250° West 398 458 36,100  Climbing Denver Center
Fri 02:59:29 PM 40.0661 -104.9556 249° West 396 456 36,000 -48 Descending Denver Center
Fri 03:00:31 PM 40.0281 -105.0903 250° West 394 453 36,000  Level Denver Center
Fri 03:01:32 PM 39.9894 -105.2267 250° West 400 460 36,000  Level Denver Center
Fri 03:02:34 PM 39.9500 -105.3650 250° West 405 466 36,000  Level Denver Center
Fri 03:03:36 PM 39.9036 -105.5228 249° West 397 457 36,000  Level Denver Center
Fri 03:04:37 PM 39.8647 -105.6600 250° West 399 459 36,000 49 Level Denver Center
Fri 03:05:39 PM 39.8236 -105.7997 249° West 410 472 36,100 48 Climbing Denver Center
Fri 03:06:41 PM 39.7819 -105.9378 249° West 408 470 36,100 -49 Level Denver Center
Fri 03:07:42 PM 39.7425 -106.0775 250° West 408 470 36,000 -49 Descending Denver Center
Fri 03:08:44 PM 39.7006 -106.2164 249° West 408 470 36,000  Level Denver Center
Fri 03:09:46 PM 39.6644 -106.3450 250° West 405 466 36,000  Level Denver Center
Fri 03:10:47 PM 39.6233 -106.4828 249° West 408 470 36,000  Level Denver Center
Fri 03:11:49 PM 39.5769 -106.6369 249° West 405 466 36,000  Level Denver Center
Fri 03:12:51 PM 39.5306 -106.7919 249° West 412 474 36,000  Level Denver Center
Fri 03:13:53 PM 39.4897 -106.9211 248° West 408 470 36,000  Level Denver Center
Fri 03:14:54 PM 39.4508 -107.0539 249° West 411 473 36,000 49 Level Denver Center
Fri 03:15:56 PM 39.4031 -107.2089 248° West 414 476 36,100  Climbing Denver Center
Fri 03:16:58 PM 39.3625 -107.3419 249° West 415 478 36,000 -44 Descending Denver Center
Fri 03:18:12 PM 39.3147 -107.4961 248° West 414 476 36,000  Level Denver Center
Fri 03:19:14 PM 39.2664 -107.6506 248° West 415 478 36,000  Level Denver Center
Fri 03:20:15 PM 39.2175 -107.8075 248° West 420 483 36,000 49 Level Denver Center
Fri 03:21:17 PM 39.1753 -107.9408 248° West 419 482 36,100  Climbing Denver Center
Fri 03:22:19 PM 39.1267 -108.0975 248° West 420 483 36,000 -48 Descending Denver Center
Fri 03:23:21 PM 39.0842 -108.2303 248° West 418 481 36,000  Level Denver Center
Fri 03:24:23 PM 39.0347 -108.3861 248° West 419 482 36,000  Level Denver Center
Fri 03:25:24 PM 38.9908 -108.5203 247° West 423 487 36,000  Level Denver Center
Fri 03:26:26 PM 38.9475 -108.6531 247° West 422 486 36,000  Level Denver Center
Fri 03:27:28 PM 38.8975 -108.8111 248° West 427 491 36,000  Level Denver Center
Fri 03:28:30 PM 38.8539 -108.9450 247° West 425 489 36,000  Level Denver Center
Fri 03:29:31 PM 38.8031 -109.1014 247° West 424 488 36,000  Level Denver Center
Fri 03:30:33 PM 38.7589 -109.2350 247° West 424 488 36,000  Level Denver Center
Fri 03:31:35 PM 38.7153 -109.3686 247° West 425 489 36,000  Level Denver Center
Fri 03:32:37 PM 38.6631 -109.5236 247° West 424 488 36,000  Level Denver Center
Fri 03:33:39 PM 38.6181 -109.6556 246° West 422 486 36,000  Level Denver Center
Fri 03:34:40 PM 38.5650 -109.8097 246° West 423 487 36,000  Level Denver Center
Fri 03:35:42 PM 38.5197 -109.9428 247° West 424 488 36,000  Level Denver Center
Fri 03:36:44 PM 38.4458 -110.0861 237° Southwest 433 498 36,000  Level Denver Center
Fri 03:37:46 PM 38.3822 -110.2069 236° Southwest 430 495 36,000  Level Denver Center
Fri 03:38:48 PM 38.3092 -110.3508 237° Southwest 433 498 36,000  Level Denver Center
Fri 03:39:50 PM 38.2447 -110.4714 236° Southwest 430 495 36,000  Level Denver Center
Fri 03:40:51 PM 38.1806 -110.5939 236° Southwest 434 499 36,000  Level Denver Center
Fri 03:41:53 PM 38.1058 -110.7347 236° Southwest 431 496 36,000  Level Denver Center
Fri 03:42:55 PM 38.0419 -110.8547 236° Southwest 429 494 36,000  Level Denver Center
Fri 03:43:57 PM 37.9697 -110.9906 236° Southwest 429 494 36,000  Level Denver Center
Fri 03:44:59 PM 37.9033 -111.1142 236° Southwest 425 489 36,000  Level Denver Center
Fri 03:46:00 PM 37.8369 -111.2381 236° Southwest 425 489 36,000  Level Denver Center
Fri 03:47:02 PM 37.7714 -111.3600 236° Southwest 422 486 36,000  Level Denver Center
Fri 03:48:16 PM 37.6936 -111.5078 236° Southwest 421 484 36,000  Level Salt Lake Center
Fri 03:49:18 PM 37.6128 -111.6528 235° Southwest 422 486 36,000  Level Salt Lake Center
Fri 03:50:08 PM 37.5586 -111.7508 235° Southwest 425 489 36,000  Level Denver Center
Fri 03:51:10 PM 37.4928 -111.8725 236° Southwest 421 484 36,000  Level Denver Center
Fri 03:52:22 PM 37.4111 -112.0206 235° Southwest 426 490 36,000  Level Salt Lake Center
Fri 03:53:01 PM 37.3711 -112.0947 236° Southwest 428 493 36,000  Level Los Angeles Center
Fri 03:54:03 PM 37.3008 -112.2178 234° Southwest 431 496 36,000  Level Los Angeles Center
Fri 03:55:05 PM 37.2333 -112.3411 236° Southwest 427 491 36,000  Level Los Angeles Center
Fri 03:55:27 PM 37.2072 -112.3906 236° Southwest 427 491 36,000  Level Salt Lake Center
Fri 03:56:08 PM 37.1503 -112.4897 234° Southwest 431 496 36,000  Level Los Angeles Center
Fri 03:57:10 PM 37.0811 -112.6139 235° Southwest 432 497 36,000  Level Los Angeles Center
Fri 03:58:12 PM 37.0100 -112.7403 235° Southwest 440 506 36,000 44 Level Los Angeles Center
Fri 03:59:26 PM 36.9250 -112.8897 235° Southwest 438 504 36,100  Climbing Los Angeles Center
Fri 04:00:28 PM 36.8544 -113.0142 235° Southwest 438 504 36,000 -48 Descending Los Angeles Center
Fri 04:01:31 PM 36.7844 -113.1381 235° Southwest 437 503 36,000  Level Los Angeles Center
Fri 04:02:33 PM 36.7131 -113.2606 234° Southwest 436 502 36,000  Level Los Angeles Center
Fri 04:03:35 PM 36.6292 -113.4092 235° Southwest 438 504 36,000  Level Los Angeles Center
Fri 04:04:37 PM 36.5586 -113.5325 235° Southwest 437 503 36,000  Level Los Angeles Center
Fri 04:05:39 PM 36.4844 -113.6619 235° Southwest 439 505 36,000  Level Los Angeles Center
Fri 04:06:41 PM 36.4136 -113.7853 235° Southwest 440 506 36,000  Level Los Angeles Center
Fri 04:07:43 PM 36.3419 -113.9081 234° Southwest 439 505 36,000  Level Los Angeles Center
Fri 04:08:45 PM 36.2703 -114.0314 234° Southwest 440 506 36,000  Level Los Angeles Center
Fri 04:09:47 PM 36.1975 -114.1550 234° Southwest 442 509 36,000  Level Los Angeles Center
Fri 04:10:50 PM 36.1089 -114.3036 234° Southwest 445 512 36,000  Level Los Angeles Center
Fri 04:11:52 PM 36.0361 -114.4281 234° Southwest 446 513 36,000  Level Los Angeles Center
Fri 04:12:54 PM 35.9617 -114.5522 233° Southwest 448 516 36,000  Level Los Angeles Center
Fri 04:13:56 PM 35.8883 -114.6761 234° Southwest 447 514 36,000  Level Los Angeles Center
Fri 04:14:58 PM 35.8144 -114.8022 234° Southwest 449 517 36,000  Level Los Angeles Center
Fri 04:16:00 PM 35.7333 -114.9228 230° Southwest 454 522 36,000  Level Los Angeles Center
Fri 04:17:02 PM 35.6486 -115.0406 229° Southwest 458 527 36,000  Level Los Angeles Center
Fri 04:18:04 PM 35.5450 -115.1844 229° Southwest 463 533 36,000  Level Los Angeles Center
Fri 04:19:06 PM 35.4592 -115.3017 228° Southwest 462 532 36,000  Level Los Angeles Center
Fri 04:20:08 PM 35.3736 -115.4186 228° Southwest 461 531 36,000  Level Los Angeles Center
Fri 04:21:11 PM 35.2883 -115.5364 228° Southwest 461 531 36,000  Level Los Angeles Center
Fri 04:22:13 PM 35.2081 -115.6456 228° Southwest 456 525 36,000  Level Los Angeles Center
Fri 04:23:15 PM 35.1228 -115.7619 228° Southwest 458 527 36,000  Level Los Angeles Center
Fri 04:24:17 PM 35.0194 -115.9000 228° Southwest 460 529 36,000  Level Los Angeles Center
Fri 04:25:19 PM 34.9339 -116.0156 228° Southwest 459 528 36,000 -871 Level Los Angeles Center
Fri 04:26:21 PM 34.8469 -116.1317 228° Southwest 461 531 34,200 -1,500 Descending Los Angeles Center
Fri 04:27:23 PM 34.7589 -116.2492 228° Southwest 466 536 32,900 -1,306 Descending Los Angeles Center
Fri 04:28:25 PM 34.6681 -116.3706 228° Southwest 480 552 31,500 -1,403 Descending Los Angeles Center
Fri 04:29:27 PM 34.5775 -116.4914 228° Southwest 482 555 30,000 -1,548 Descending Los Angeles Center
Fri 04:30:29 PM 34.4667 -116.6364 227° Southwest 487 560 28,300 -1,728 Descending Los Angeles Center
Fri 04:31:32 PM 34.3744 -116.7567 227° Southwest 485 558 26,400 -2,112 Descending Los Angeles Center
Fri 04:32:34 PM 34.2842 -116.8756 227° Southwest 481 554 23,900 -2,371 Descending Los Angeles Center
Fri 04:33:36 PM 34.1978 -116.9881 227° Southwest 459 528 21,500 -2,455 Descending Los Angeles Center
Fri 04:34:24 PM 34.1167 -117.0833 224° Southwest 434 499 19,400 -2,000 Descending Southern California TRACON
Fri 04:35:24 PM 34.0667 -117.2000 243° Southwest 406 467 17,900 -1,488 Descending Southern California TRACON
Fri 04:36:25 PM 34.0333 -117.3167 251° West 357 411 16,400 -2,331 Descending Southern California TRACON
Fri 04:37:25 PM 34.0333 -117.4500 270° West 353 406 13,200 -2,650 Descending Southern California TRACON
Fri 04:38:25 PM 34.0167 -117.5667 260° West 346 398 11,100 -1,488 Descending Southern California TRACON
Fri 04:39:26 PM 34.0167 -117.6667 270° West 311 358 10,200 -1,091 Descending Southern California TRACON
Fri 04:40:26 PM 34.0000 -117.7667 259° West 303 349 8,900 -1,350 Descending Southern California TRACON
Fri 04:41:26 PM 33.9833 -117.8667 259° West 295 339 7,500 -1,388 Descending Southern California TRACON
Fri 04:42:27 PM 33.9833 -117.9667 270° West 286 329 6,100 -1,190 Descending Southern California TRACON
Fri 04:43:27 PM 33.9667 -118.0500 256° West 272 313 5,100 -950 Descending Southern California TRACON
Fri 04:44:27 PM 33.9667 -118.1333 270° West 239 275 4,200 -978 Descending Southern California TRACON
Fri 04:44:59 PM 33.9606 -118.1636 256° West 242 278 3,600 -1,149 Descending Los Angeles Center
Fri 04:46:01 PM 33.9517 -118.2403 262° West 234 269 2,400 -1,113 Descending Los Angeles Center
Fri 04:47:03 PM 33.9442 -118.3186 263° West 213 245 1,300 -968 Descending Los Angeles Center
Fri 04:48:05 PM 33.9406 -118.3653 265° West 168 193 400 -581 Descending Los Angeles Center
Fri 04:49:07 PM 33.9367 -118.4044 263° West 155 178 100 -290 Descending Los Angeles Center
Fri 04:51:00 PM 33.9333 -118.4000 259° West  Level FlightAware Approximate

Login

Don't have an account? Register now (free) for customized features, flight alerts, and more!